Time;durP1;ratioP1;P1;durP2;ratioP2;P2;SDS_P1;SDS_P2;PMS_P1;PMS_P2;Temp;Humidity;BMP_temperature;BMP_pressure;BME280_temperature;BME280_humidity;BME280_pressure;Samples;Min_cycle;Max_cycle;Signal;HPM_P1;HPM_P2
2021/08/04 00:00:28;;;;;;;10.08;8.30;;;;;;;16.68;68.34;100106.02;1767100;80;25751;-65
2021/08/04 00:02:56;;;;;;;9.30;8.35;;;;;;;16.62;68.48;100097.31;1767183;80;25645;-64
2021/08/04 00:05:24;;;;;;;9.93;8.83;;;;;;;16.57;68.87;100102.47;1767071;81;27383;-64
2021/08/04 00:07:50;;;;;;;10.35;9.15;;;;;;;16.53;68.93;100107.61;1766999;80;25718;-64
2021/08/04 00:10:18;;;;;;;11.28;9.48;;;;;;;16.46;69.14;100113.69;1767061;81;25755;-65
2021/08/04 00:12:46;;;;;;;12.33;9.70;;;;;;;16.41;69.46;100123.52;1766957;81;26160;-65
2021/08/04 00:15:14;;;;;;;11.03;10.00;;;;;;;16.36;69.70;100117.77;1766870;81;25823;-64
2021/08/04 00:17:43;;;;;;;11.85;9.55;;;;;;;16.32;69.96;100122.33;1767087;81;27317;-65
2021/08/04 00:20:11;;;;;;;13.28;9.93;;;;;;;16.28;69.80;100125.55;1764709;80;25684;-65
2021/08/04 00:22:38;;;;;;;13.70;9.45;;;;;;;16.24;69.54;100128.19;1672323;85;25697;-65
2021/08/04 00:25:06;;;;;;;11.12;9.63;;;;;;;16.23;69.94;100121.72;1697897;84;25763;-65
2021/08/04 00:27:33;;;;;;;10.63;9.53;;;;;;;16.19;69.83;100120.27;1676230;84;25856;-65
2021/08/04 00:30:00;;;;;;;10.53;9.43;;;;;;;16.16;70.00;100127.00;1698059;83;27328;-66
2021/08/04 00:32:27;;;;;;;11.75;9.35;;;;;;;16.12;70.02;100122.01;1697733;84;25751;-63
2021/08/04 00:34:54;;;;;;;11.43;9.18;;;;;;;16.08;70.05;100134.19;1697954;84;25706;-64
2021/08/04 00:37:20;;;;;;;14.75;9.55;;;;;;;16.06;70.18;100131.03;1697937;84;25691;-65
2021/08/04 00:39:47;;;;;;;10.85;8.83;;;;;;;16.03;70.28;100127.05;1697995;84;25727;-64
2021/08/04 00:42:18;;;;;;;84.97;79.40;;;;;;;16.00;70.21;100130.47;1697975;83;28043;-64
2021/08/04 00:44:46;;;;;;;80.47;74.87;;;;;;;15.95;70.63;100133.45;1697908;84;25707;-64
2021/08/04 00:47:14;;;;;;;83.60;77.97;;;;;;;15.93;71.01;100138.47;1677220;85;25702;-64
2021/08/04 00:49:40;;;;;;;78.35;73.20;;;;;;;15.89;71.19;100138.95;1697991;84;25723;-64
2021/08/04 00:52:08;;;;;;;78.57;73.62;;;;;;;15.90;71.35;100130.98;1698029;84;25757;-64
2021/08/04 00:54:36;;;;;;;80.60;75.15;;;;;;;15.91;71.41;100129.85;1697949;84;27421;-64
2021/08/04 00:57:04;;;;;;;79.30;73.95;;;;;;;15.92;71.39;100130.63;1697938;83;25852;-65
2021/08/04 00:59:31;;;;;;;78.65;73.62;;;;;;;15.94;71.76;100137.92;1676422;84;26364;-64
2021/08/04 01:02:14;;;;;;;78.42;73.35;;;;;;;15.96;71.85;100128.81;1697864;84;27963;-65
2021/08/04 01:04:56;;;;;;;79.35;74.05;;;;;;;15.97;71.79;100125.73;1698038;84;25751;-64
2021/08/04 01:07:31;;;;;;;83.10;77.60;;;;;;;16.02;71.94;100120.03;1698058;84;27338;-64
2021/08/04 01:10:20;;;;;;;79.25;74.05;;;;;;;16.04;72.02;100118.31;1697876;84;25697;-64
2021/08/04 01:13:14;;;;;;;33.33;30.68;;;;;;;16.04;72.20;100123.19;1689097;84;25709;-64
2021/08/04 01:15:55;;;;;;;10.78;9.68;;;;;;;16.08;71.95;100127.95;1697908;84;26034;-65
2021/08/04 01:18:26;;;;;;;12.25;9.70;;;;;;;16.08;72.23;100127.38;1698029;84;25717;-64
2021/08/04 01:20:53;;;;;;;12.85;10.00;;;;;;;16.04;71.84;100125.92;1700763;84;28505;-65
2021/08/04 01:23:49;;;;;;;11.30;9.70;;;;;;;16.02;71.79;100123.30;1704456;84;25842;-65
2021/08/04 01:26:31;;;;;;;10.85;9.50;;;;;;;15.96;71.72;100128.81;1704341;84;25733;-64
2021/08/04 01:29:01;;;;;;;12.07;9.95;;;;;;;15.91;71.90;100116.21;1704559;84;25794;-65
2021/08/04 01:31:31;;;;;;;10.85;9.50;;;;;;;15.90;72.11;100117.92;1682380;84;26386;-64
2021/08/04 01:33:59;;;;;;;12.75;10.45;;;;;;;15.86;72.21;100113.16;1704698;84;27058;-65
2021/08/04 01:36:27;;;;;;;11.95;9.65;;;;;;;15.86;72.22;100113.74;1704570;84;25738;-65
2021/08/04 01:38:55;;;;;;;11.15;9.88;;;;;;;15.85;72.27;100117.05;1701217;84;26446;-65
2021/08/04 01:41:24;;;;;;;12.23;10.75;;;;;;;15.86;72.42;100114.52;1706692;84;26197;-65
2021/08/04 01:43:52;;;;;;;10.98;9.98;;;;;;;15.85;72.46;100110.78;1701262;84;25721;-65
2021/08/04 01:46:22;;;;;;;15.65;10.98;;;;;;;15.82;72.58;100109.55;1686300;84;27325;-65
2021/08/04 01:48:52;;;;;;;12.35;10.03;;;;;;;15.80;72.68;100111.84;1701074;84;25693;-65
2021/08/04 01:51:20;;;;;;;11.48;10.25;;;;;;;15.80;72.79;100108.30;1704551;84;25801;-65
2021/08/04 01:53:50;;;;;;;11.55;9.70;;;;;;;15.79;72.57;100110.83;1706667;84;26377;-65
2021/08/04 01:56:17;;;;;;;13.38;11.00;;;;;;;15.75;72.35;100108.01;1701212;83;25741;-65
2021/08/04 01:58:45;;;;;;;11.28;10.08;;;;;;;15.72;72.66;100112.76;1706686;84;27898;-65
2021/08/04 02:01:12;;;;;;;12.03;10.30;;;;;;;15.67;72.61;100100.73;1701056;84;25673;-65
2021/08/04 02:03:39;;;;;;;11.93;10.72;;;;;;;15.63;73.02;100101.20;1706726;84;25781;-65
2021/08/04 02:06:34;;;;;;;13.58;10.88;;;;;;;15.60;72.96;100101.91;1701042;83;26290;-65
2021/08/04 02:09:15;;;;;;;12.15;10.00;;;;;;;15.57;73.10;100107.48;1706775;84;25886;-65
2021/08/04 02:12:07;;;;;;;12.18;10.88;;;;;;;15.55;73.32;100110.34;1766272;81;28061;-65
2021/08/04 02:14:48;;;;;;;13.45;11.08;;;;;;;15.52;73.45;100114.53;1767112;81;25767;-65
2021/08/04 02:17:35;;;;;;;11.45;10.32;;;;;;;15.48;73.81;100111.72;1761841;80;25965;-65
2021/08/04 02:20:08;;;;;;;11.40;10.23;;;;;;;15.43;73.93;100104.36;1767066;81;26051;-64
2021/08/04 02:22:49;;;;;;;11.30;10.10;;;;;;;15.39;73.97;100106.98;1764704;80;26326;-63
2021/08/04 02:25:20;;;;;;;12.10;10.30;;;;;;;15.39;74.18;100097.45;1767105;81;27391;-63
2021/08/04 02:27:49;;;;;;;12.35;10.28;;;;;;;15.37;74.22;100091.53;1771970;80;25834;-63
2021/08/04 02:30:18;;;;;;;11.93;10.63;;;;;;;15.39;74.09;100091.19;1773066;80;25657;-65
2021/08/04 02:32:46;;;;;;;11.50;10.30;;;;;;;15.41;74.17;100104.70;1772921;80;25838;-65
2021/08/04 02:35:13;;;;;;;10.63;9.63;;;;;;;15.42;74.40;100094.59;1772847;80;25744;-65
2021/08/04 02:37:40;;;;;;;11.03;9.93;;;;;;;15.41;74.21;100096.53;1772841;80;27369;-65
2021/08/04 02:40:10;;;;;;;15.05;10.45;;;;;;;15.40;74.27;100104.47;1768514;80;26368;-65
2021/08/04 02:42:38;;;;;;;14.68;10.80;;;;;;;15.39;74.31;100106.17;1721388;81;25737;-65
2021/08/04 02:45:07;;;;;;;13.30;10.50;;;;;;;15.35;74.26;100101.98;1771090;80;26307;-65
2021/08/04 02:47:36;;;;;;;12.20;11.08;;;;;;;15.34;74.36;100107.23;1767314;80;25725;-65
2021/08/04 02:50:06;;;;;;;13.07;10.47;;;;;;;15.31;74.65;100103.25;1701432;83;26873;-63
2021/08/04 02:52:35;;;;;;;14.85;10.75;;;;;;;15.30;74.74;100100.87;1767430;80;26457;-63
2021/08/04 02:55:04;;;;;;;15.30;10.80;;;;;;;15.28;74.71;100102.58;1766922;80;25700;-65
2021/08/04 02:57:31;;;;;;;12.75;11.45;;;;;;;15.29;75.00;100110.20;1767239;80;26469;-63
2021/08/04 02:59:59;;;;;;;12.23;10.90;;;;;;;15.25;74.92;100118.82;1767115;80;25670;-64
2021/08/04 03:02:26;;;;;;;13.38;11.15;;;;;;;15.23;74.90;100108.27;1701020;83;28387;-64
2021/08/04 03:04:53;;;;;;;13.62;11.80;;;;;;;15.24;74.89;100105.78;1764783;80;25799;-65
2021/08/04 03:07:19;;;;;;;11.93;10.70;;;;;;;15.25;74.89;100098.39;1766445;81;25692;-65
2021/08/04 03:09:46;;;;;;;11.53;10.45;;;;;;;15.24;74.99;100091.37;1766963;81;25720;-65
2021/08/04 03:12:13;;;;;;;10.80;9.63;;;;;;;15.25;74.87;100093.72;1767110;81;25778;-65
2021/08/04 03:14:39;;;;;;;13.32;11.28;;;;;;;15.26;75.06;100098.63;1767100;81;28351;-65
2021/08/04 03:17:06;;;;;;;11.43;10.30;;;;;;;15.24;74.92;100098.97;1766922;80;25917;-65
2021/08/04 03:19:33;;;;;;;16.02;11.70;;;;;;;15.24;75.13;100101.69;1767105;80;25696;-64
2021/08/04 03:22:00;;;;;;;12.82;11.45;;;;;;;15.24;75.19;100088.06;1766844;81;26875;-65
2021/08/04 03:24:27;;;;;;;14.30;11.50;;;;;;;15.25;75.37;100091.00;1767040;81;26433;-65
2021/08/04 03:26:55;;;;;;;13.25;10.93;;;;;;;15.27;75.44;100092.02;1745824;81;27526;-65
2021/08/04 03:29:21;;;;;;;80.83;75.32;;;;;;;15.28;75.55;100084.86;1766989;80;25767;-65
2021/08/04 03:31:50;;;;;;;85.55;79.97;;;;;;;15.27;75.80;100079.20;1767048;81;25688;-65
2021/08/04 03:34:17;;;;;;;81.78;76.30;;;;;;;15.30;76.00;100080.44;1767100;81;25751;-65
2021/08/04 03:36:43;;;;;;;82.67;77.35;;;;;;;15.34;76.09;100082.70;1767093;80;25765;-65
2021/08/04 03:39:09;;;;;;;81.08;75.47;;;;;;;15.39;76.01;100087.91;1766985;81;27342;-65
2021/08/04 03:41:36;;;;;;;80.38;74.97;;;;;;;15.43;75.98;100086.07;1766860;81;25756;-64
2021/08/04 03:44:05;;;;;;;85.47;79.90;;;;;;;15.46;75.99;100088.66;1767034;81;26382;-65
2021/08/04 03:46:34;;;;;;;80.32;75.12;;;;;;;15.51;75.97;100095.25;1745468;81;25760;-65
2021/08/04 03:49:02;;;;;;;88.33;82.37;;;;;;;15.55;75.89;100093.98;1767271;81;25753;-65
2021/08/04 03:51:29;;;;;;;77.87;72.70;;;;;;;15.57;75.96;100089.76;1767058;81;27313;-64
2021/08/04 03:53:55;;;;;;;81.75;76.47;;;;;;;15.59;75.98;100087.47;1766916;81;25692;-65
2021/08/04 03:56:23;;;;;;;81.85;76.55;;;;;;;15.64;76.10;100085.08;1767089;81;26393;-65
2021/08/04 03:58:52;;;;;;;82.50;77.15;;;;;;;15.68;75.97;100096.85;1767012;81;26281;-64
2021/08/04 04:01:18;;;;;;;82.53;77.13;;;;;;;15.71;75.98;100102.20;1769596;80;25693;-65
2021/08/04 04:03:45;;;;;;;80.07;74.67;;;;;;;15.74;76.18;100101.50;1771117;80;28441;-65
2021/08/04 04:06:13;;;;;;;81.67;76.17;;;;;;;15.76;76.24;100093.22;1766647;80;26292;-64
2021/08/04 04:08:39;;;;;;;81.92;76.42;;;;;;;15.79;76.27;100093.89;1766959;81;25793;-64
2021/08/04 04:11:07;;;;;;;87.67;81.87;;;;;;;15.83;76.40;100098.07;1765969;81;25684;-64
2021/08/04 04:13:34;;;;;;;81.60;76.10;;;;;;;15.85;76.40;100092.50;1766800;80;25719;-65
2021/08/04 04:16:00;;;;;;;83.97;78.30;;;;;;;15.89;76.51;100092.59;1766962;81;27309;-65
2021/08/04 04:18:28;;;;;;;86.32;79.87;;;;;;;15.94;76.54;100095.06;1766480;80;25755;-64
2021/08/04 04:20:55;;;;;;;83.20;77.40;;;;;;;16.00;76.43;100099.68;1767798;80;25741;-65
2021/08/04 04:23:21;;;;;;;79.82;74.65;;;;;;;16.05;76.66;100104.30;1701172;83;25915;-65
2021/08/04 04:25:48;;;;;;;80.07;74.75;;;;;;;16.12;76.93;100101.55;1765779;81;25787;-64
2021/08/04 04:28:16;;;;;;;80.97;75.62;;;;;;;16.32;77.02;100107.89;1700909;83;28345;-65
2021/08/04 04:30:42;;;;;;;80.97;75.45;;;;;;;16.32;77.02;100107.89;1706521;84;25718;-65
2021/08/04 04:33:10;;;;;;;80.47;75.32;;;;;;;16.36;76.73;100110.12;1766911;81;25717;-65
2021/08/04 04:35:37;;;;;;;82.40;76.28;;;;;;;16.41;76.66;100114.77;1766901;80;25681;-65
2021/08/04 04:38:06;;;;;;;80.25;75.03;;;;;;;16.49;76.70;100117.09;1767121;80;25622;-65
2021/08/04 04:40:33;;;;;;;79.87;74.10;;;;;;;16.57;76.54;100120.80;1704673;83;27215;-65
2021/08/04 04:43:00;;;;;;;78.72;73.60;;;;;;;16.59;76.31;100113.82;1766154;81;25697;-65
2021/08/04 04:45:28;;;;;;;80.10;74.95;;;;;;;16.64;76.19;100111.98;1766979;81;25741;-65
2021/08/04 04:47:55;;;;;;;79.72;74.30;;;;;;;16.71;76.42;100117.02;1680628;84;26268;-65
2021/08/04 04:50:23;;;;;;;78.97;73.78;;;;;;;16.79;76.17;100119.36;1766754;81;25764;-65
2021/08/04 04:52:50;;;;;;;13.32;11.93;;;;;;;16.81;76.02;100117.84;1680918;84;27616;-65
2021/08/04 04:55:17;;;;;;;13.83;9.28;;;;;;;16.92;75.91;100128.25;1766642;81;25639;-65
2021/08/04 04:57:44;;;;;;;11.08;9.93;;;;;;;16.93;75.63;100123.80;1701537;83;25711;-65
2021/08/04 05:00:13;;;;;;;10.70;8.98;;;;;;;16.96;75.76;100124.46;1700955;84;25764;-65
2021/08/04 05:02:42;;;;;;;11.33;8.68;;;;;;;17.01;75.80;100130.23;1766874;81;25740;-65
2021/08/04 05:05:11;;;;;;;11.28;9.00;;;;;;;17.04;75.67;100131.45;1767193;80;27342;-65
2021/08/04 05:07:38;;;;;;;10.85;8.23;;;;;;;17.05;75.55;100137.92;1681099;84;25752;-65
2021/08/04 05:10:06;;;;;;;77.53;72.75;;;;;;;17.06;75.54;100134.05;1701161;83;25734;-65
2021/08/04 05:12:34;;;;;;;76.80;71.73;;;;;;;17.07;75.95;100123.91;1686425;84;26165;-65
2021/08/04 05:15:01;;;;;;;77.70;72.78;;;;;;;17.12;75.80;100107.23;1701190;84;25686;-65
2021/08/04 05:17:29;;;;;;;76.92;71.92;;;;;;;17.22;75.84;100125.02;1706690;84;28351;-65
2021/08/04 05:19:57;;;;;;;75.15;70.12;;;;;;;17.31;75.62;100129.69;1656537;83;25786;-64
2021/08/04 05:22:27;;;;;;;77.70;72.80;;;;;;;17.41;75.56;100129.12;1706589;84;25765;-65
2021/08/04 05:24:54;;;;;;;79.20;74.17;;;;;;;17.46;75.38;100123.36;1701122;84;25776;-64
2021/08/04 05:27:21;;;;;;;79.22;74.42;;;;;;;17.56;75.17;100122.00;1706805;84;25733;-64
2021/08/04 05:29:48;;;;;;;77.47;72.42;;;;;;;17.63;75.00;100118.63;1766146;81;27695;-65
2021/08/04 05:32:15;;;;;;;77.40;72.67;;;;;;;17.70;74.76;100116.80;1766977;81;26206;-65
2021/08/04 05:34:43;;;;;;;75.60;70.75;;;;;;;17.78;74.44;100124.58;1767126;81;25819;-65
2021/08/04 05:37:10;;;;;;;78.65;73.42;;;;;;;17.78;74.09;100121.06;1767154;81;25726;-65
2021/08/04 05:39:40;;;;;;;76.60;71.80;;;;;;;17.78;73.89;100121.06;1767392;81;26086;-65
2021/08/04 05:42:07;;;;;;;75.60;70.57;;;;;;;17.75;73.81;100114.36;1745666;81;27392;-65
2021/08/04 05:44:35;;;;;;;76.90;71.87;;;;;;;17.74;73.99;100119.59;1767048;81;25730;-64
2021/08/04 05:47:03;;;;;;;75.00;70.15;;;;;;;17.79;74.34;100115.78;1767090;81;25869;-65
2021/08/04 05:49:30;;;;;;;75.10;70.12;;;;;;;17.86;74.42;100116.76;1745999;81;26540;-65
2021/08/04 05:51:58;;;;;;;75.12;70.42;;;;;;;17.95;74.20;100114.38;1776265;80;25710;-65
2021/08/04 05:54:26;;;;;;;75.60;70.85;;;;;;;18.03;73.86;100116.88;1767105;80;27392;-65
2021/08/04 05:56:53;;;;;;;74.23;69.43;;;;;;;18.11;73.84;100117.19;1767322;80;25770;-64
2021/08/04 05:59:21;;;;;;;76.12;71.33;;;;;;;18.20;73.50;100118.89;1766885;81;25783;-64
2021/08/04 06:01:48;;;;;;;73.92;69.27;;;;;;;18.24;73.14;100115.07;1767038;81;26273;-65
2021/08/04 06:04:15;;;;;;;73.72;69.05;;;;;;;18.28;73.30;100117.28;1767198;80;26359;-65
2021/08/04 06:06:44;;;;;;;75.57;70.72;;;;;;;18.37;73.25;100117.62;1767061;80;27586;-65
2021/08/04 06:09:11;;;;;;;75.52;70.70;;;;;;;18.43;73.24;100110.10;1767304;81;25827;-64
2021/08/04 06:11:39;;;;;;;74.47;69.47;;;;;;;18.49;72.96;100121.55;1767156;81;25735;-65
2021/08/04 06:14:06;;;;;;;75.45;70.83;;;;;;;18.54;72.65;100117.70;1743249;81;25748;-64
2021/08/04 06:16:35;;;;;;;73.65;69.10;;;;;;;18.57;72.58;100123.81;1764649;81;25676;-64
2021/08/04 06:19:02;;;;;;;77.45;72.75;;;;;;;18.64;72.45;100121.18;1767047;81;28035;-65
2021/08/04 06:21:30;;;;;;;77.70;72.95;;;;;;;18.69;72.07;100133.78;1766893;81;25740;-65
2021/08/04 06:23:59;;;;;;;76.30;71.53;;;;;;;18.67;71.85;100140.41;1767091;81;25705;-65
2021/08/04 06:26:25;;;;;;;74.40;69.75;;;;;;;18.68;71.55;100134.38;1767042;81;26396;-65
2021/08/04 06:28:53;;;;;;;74.82;70.12;;;;;;;18.66;71.97;100144.88;1767125;80;25768;-65
2021/08/04 06:31:19;;;;;;;73.83;69.30;;;;;;;18.66;71.47;100155.28;1767160;81;27770;-65
2021/08/04 06:33:46;;;;;;;76.55;71.50;;;;;;;18.66;71.63;100162.69;1767030;81;25671;-65
2021/08/04 06:36:13;;;;;;;75.20;70.57;;;;;;;18.62;71.42;100168.70;1767032;81;25858;-65
2021/08/04 06:38:39;;;;;;;75.95;71.33;;;;;;;18.56;71.32;100174.26;1767060;81;25795;-65
2021/08/04 06:41:06;;;;;;;77.70;72.67;;;;;;;18.48;71.41;100173.36;1767196;81;25697;-64
2021/08/04 06:43:33;;;;;;;77.22;71.95;;;;;;;18.40;71.65;100172.44;1767052;81;27297;-65
2021/08/04 06:46:00;;;;;;;78.15;73.07;;;;;;;18.34;71.84;100175.84;1767005;81;25869;-65
2021/08/04 06:48:27;;;;;;;77.62;72.70;;;;;;;18.33;72.22;100175.06;1758774;81;25773;-65
2021/08/04 06:50:54;;;;;;;76.30;71.17;;;;;;;18.18;71.84;100171.27;1761311;81;25797;-65
2021/08/04 06:53:21;;;;;;;78.45;73.28;;;;;;;18.07;72.03;100172.45;1767162;80;25831;-65
2021/08/04 06:55:47;;;;;;;78.20;73.20;;;;;;;18.02;72.62;100170.00;1767111;81;26817;-64
2021/08/04 06:58:14;;;;;;;78.00;72.80;;;;;;;18.05;73.12;100169.29;1745532;81;25733;-64
2021/08/04 07:00:41;;;;;;;78.95;72.90;;;;;;;18.08;73.40;100169.13;1767088;81;25641;-64
2021/08/04 07:03:08;;;;;;;77.25;72.05;;;;;;;18.09;73.80;100172.87;1767004;80;26209;-64
2021/08/04 07:05:35;;;;;;;76.82;71.92;;;;;;;18.09;74.08;100163.88;1767136;81;25637;-64
2021/08/04 07:08:02;;;;;;;75.25;70.55;;;;;;;18.12;74.57;100164.52;1767066;80;27658;-64
2021/08/04 07:10:29;;;;;;;75.50;70.62;;;;;;;18.16;74.82;100166.73;1766977;81;25710;-64
2021/08/04 07:12:56;;;;;;;78.17;72.95;;;;;;;18.20;74.99;100171.72;1745680;81;25729;-64
2021/08/04 07:15:23;;;;;;;79.60;74.20;;;;;;;18.23;75.19;100168.23;1767059;81;25762;-64
2021/08/04 07:17:51;;;;;;;79.92;74.47;;;;;;;18.26;75.38;100172.20;1767070;81;26256;-64
2021/08/04 07:20:21;;;;;;;77.25;71.97;;;;;;;18.28;75.90;100163.82;1767146;81;27312;-64
2021/08/04 07:22:50;;;;;;;78.40;72.87;;;;;;;18.33;76.24;100164.69;1764027;81;25720;-64
2021/08/04 07:25:18;;;;;;;76.50;71.60;;;;;;;18.36;76.46;100163.97;1681259;85;25703;-64
2021/08/04 07:27:46;;;;;;;80.85;75.47;;;;;;;18.42;76.58;100160.56;1697987;84;25668;-64
2021/08/04 07:30:13;;;;;;;79.67;74.75;;;;;;;18.48;76.75;100152.83;1677500;85;25715;-65
2021/08/04 07:32:40;;;;;;;77.15;71.82;;;;;;;18.54;76.82;100156.03;1697993;84;27402;-65
2021/08/04 07:35:08;;;;;;;79.87;74.77;;;;;;;18.60;77.08;100160.84;1677385;85;25785;-65
2021/08/04 07:37:36;;;;;;;77.08;71.97;;;;;;;18.67;76.86;100160.17;1698221;84;25726;-65
2021/08/04 07:40:07;;;;;;;79.27;74.07;;;;;;;18.75;76.71;100165.20;1677404;85;26410;-65
2021/08/04 07:42:35;;;;;;;79.03;73.65;;;;;;;18.79;76.74;100163.30;1698092;84;25850;-65
2021/08/04 07:45:03;;;;;;;76.00;71.00;;;;;;;18.82;76.56;100162.56;1677399;85;28201;-65
2021/08/04 07:47:29;;;;;;;75.10;70.47;;;;;;;18.88;76.26;100169.32;1697877;84;25683;-65
2021/08/04 07:49:56;;;;;;;76.70;71.77;;;;;;;18.95;76.35;100168.64;1677442;85;25706;-65
2021/08/04 07:52:23;;;;;;;76.20;71.02;;;;;;;18.97;76.05;100169.87;1698128;84;26293;-66
2021/08/04 07:54:50;;;;;;;77.75;72.62;;;;;;;18.95;76.02;100173.56;1677463;85;25753;-65
2021/08/04 07:57:18;;;;;;;73.97;69.17;;;;;;;18.99;76.29;100181.25;1698153;84;27361;-65
2021/08/04 07:59:44;;;;;;;76.20;71.35;;;;;;;19.04;76.94;100175.45;1697930;84;25827;-65
2021/08/04 08:02:11;;;;;;;76.45;71.70;;;;;;;19.07;76.94;100176.67;1677378;85;25713;-65
2021/08/04 08:04:38;;;;;;;76.07;71.22;;;;;;;19.08;76.72;100176.87;1698007;84;25817;-65
2021/08/04 08:07:06;;;;;;;76.62;71.50;;;;;;;19.10;76.79;100181.98;1677368;85;25760;-65
2021/08/04 08:09:33;;;;;;;79.27;74.17;;;;;;;19.13;76.56;100178.51;1698047;84;27345;-65
2021/08/04 08:12:01;;;;;;;76.65;71.60;;;;;;;19.14;76.56;100178.73;1677385;85;25808;-66
2021/08/04 08:14:29;;;;;;;76.57;71.75;;;;;;;19.15;76.49;100170.70;1698032;84;25711;-65
2021/08/04 08:16:56;;;;;;;76.77;71.62;;;;;;;19.16;76.71;100169.55;1677579;85;26138;-65
2021/08/04 08:19:24;;;;;;;71.67;67.22;;;;;;;19.21;76.79;100171.97;1698061;84;25666;-65
2021/08/04 08:21:51;;;;;;;73.97;69.37;;;;;;;19.24;76.87;100169.87;1677392;85;27907;-65
2021/08/04 08:24:20;;;;;;;71.40;67.12;;;;;;;19.27;76.92;100175.17;1701318;84;26288;-65
2021/08/04 08:26:47;;;;;;;;;;;;;;;19.31;76.99;100174.07;1767539;80;25974;-65
2021/08/04 08:29:14;;;;;;;72.27;67.65;;;;;;;19.37;76.96;100177.27;1767011;81;25716;-65
2021/08/04 08:31:40;;;;;;;72.37;68.05;;;;;;;19.38;76.80;100174.16;1767073;81;25653;-66
2021/08/04 08:34:08;;;;;;;72.00;67.62;;;;;;;19.41;76.08;100175.38;1767030;81;27337;-65
2021/08/04 08:36:37;;;;;;;72.22;68.00;;;;;;;19.43;75.94;100183.21;1766943;81;26240;-66
2021/08/04 08:39:09;;;;;;;70.57;66.28;;;;;;;19.45;75.77;100178.17;1767052;81;25731;-65
2021/08/04 08:41:38;;;;;;;73.00;68.42;;;;;;;19.47;75.58;100185.44;1766993;81;25750;-66
2021/08/04 08:44:07;;;;;;;67.30;63.20;;;;;;;19.50;75.71;100172.36;1767144;81;25741;-65
2021/08/04 08:46:34;;;;;;;36.10;33.60;;;;;;;19.47;75.64;100179.95;1745911;81;27339;-66
2021/08/04 08:49:01;;;;;;;5.30;4.03;;;;;;;19.51;75.40;100189.81;1777908;80;26443;-65
2021/08/04 08:51:31;;;;;;;4.53;4.12;;;;;;;19.55;75.40;100188.48;1777944;80;26283;-66
2021/08/04 08:53:57;;;;;;;6.67;5.35;;;;;;;19.58;75.62;100185.78;1772938;80;25735;-65
2021/08/04 08:56:25;;;;;;;6.40;5.72;;;;;;;19.62;75.67;100177.59;1772775;80;25816;-66
2021/08/04 08:58:54;;;;;;;5.83;5.17;;;;;;;19.66;75.80;100175.67;1769908;80;27502;-65
2021/08/04 09:01:35;;;;;;;;;;;;;;;19.70;75.78;100178.46;1703528;83;25780;-67
2021/08/04 09:04:09;;;;;;;5.90;5.37;;;;;;;19.70;75.72;100173.78;1765597;81;25789;-64
2021/08/04 09:06:56;;;;;;;9.25;8.28;;;;;;;19.74;75.49;100182.05;1767008;80;26187;-64
2021/08/04 09:09:27;;;;;;;11.22;8.18;;;;;;;19.73;75.39;100180.46;1768048;80;25772;-64
2021/08/04 09:12:07;;;;;;;9.28;8.40;;;;;;;19.74;74.72;100192.47;1767033;80;27252;-64
2021/08/04 09:14:36;;;;;;;10.00;9.00;;;;;;;19.72;74.44;100191.25;1701157;83;25816;-64
2021/08/04 09:17:08;;;;;;;10.25;9.13;;;;;;;19.70;74.36;100194.36;1766476;81;25740;-64
2021/08/04 09:19:39;;;;;;;9.95;8.83;;;;;;;19.71;74.35;100194.55;1701193;83;26374;-64
2021/08/04 09:22:14;;;;;;;10.72;8.90;;;;;;;19.72;74.40;100202.22;1766784;81;25738;-66
2021/08/04 09:25:09;;;;;;;10.70;9.70;;;;;;;19.75;74.49;100200.92;1700402;83;27320;-65
2021/08/04 09:27:47;;;;;;;9.63;8.73;;;;;;;19.78;74.64;100197.44;1744712;81;25794;-65
2021/08/04 09:30:25;;;;;;;10.32;9.23;;;;;;;19.83;74.48;100197.66;1767297;80;25710;-65
2021/08/04 09:32:51;;;;;;;9.60;8.70;;;;;;;19.85;74.64;100202.78;1767967;80;25781;-65
2021/08/04 09:35:22;;;;;;;13.50;7.42;;;;;;;19.86;74.80;100202.41;1701060;83;25646;-66
2021/08/04 09:37:50;;;;;;;6.87;6.28;;;;;;;19.88;74.64;100199.30;1767067;81;28366;-66
2021/08/04 09:40:21;;;;;;;6.75;5.25;;;;;;;19.90;74.49;100198.33;1766442;81;25651;-65
2021/08/04 09:42:52;;;;;;;5.78;5.05;;;;;;;19.94;74.40;100201.34;1766736;80;25978;-65
2021/08/04 09:45:49;;;;;;;6.50;4.97;;;;;;;20.01;74.44;100200.63;1700985;83;25710;-65
2021/08/04 09:48:17;;;;;;;5.37;4.97;;;;;;;20.09;74.49;100194.61;1754506;81;25688;-65
2021/08/04 09:50:59;;;;;;;8.78;5.95;;;;;;;20.18;74.60;100197.09;1753807;80;27921;-65
2021/08/04 09:53:33;;;;;;;5.87;5.08;;;;;;;20.25;74.57;100189.70;1679243;85;25804;-65
2021/08/04 09:56:20;;;;;;;6.28;4.50;;;;;;;20.32;74.16;100193.09;1699979;84;25767;-66
2021/08/04 09:58:53;;;;;;;4.37;4.05;;;;;;;20.39;73.66;100183.55;1699897;83;25731;-65
2021/08/04 10:01:39;;;;;;;5.75;4.65;;;;;;;20.45;73.36;100188.09;1699922;84;26430;-65
2021/08/04 10:04:08;;;;;;;5.08;4.58;;;;;;;20.50;73.31;100181.69;1699927;84;27323;-65
2021/08/04 10:06:40;;;;;;;;;;;;;;;20.65;73.59;100177.71;1702381;84;25783;-65
2021/08/04 10:09:09;;;;;;;;;;;;;;;20.80;73.88;100183.52;1702449;84;25806;-65
2021/08/04 10:11:44;;;;;;;;;;;;;;;20.97;73.95;100175.80;1680728;84;25714;-65
2021/08/04 10:14:15;;;;;;;;;;;;;;;21.23;73.48;100181.64;1700934;84;25678;-65
2021/08/04 10:16:42;;;;;;;;;;;;;;;21.41;73.11;100186.66;1702483;83;27295;-65
2021/08/04 10:19:09;;;;;;;;;;;;;;;21.55;72.37;100180.46;1700943;82;25778;-65
2021/08/04 10:21:37;;;;;;;;;;;;;;;21.64;71.83;100185.03;1702482;84;25748;-65
2021/08/04 10:24:06;;;;;;;;;;;;;;;21.74;70.80;100184.08;1702408;84;26311;-65
2021/08/04 10:26:35;;;;;;;;;;;;;;;21.74;69.48;100177.20;1701007;84;25742;-65
2021/08/04 10:29:03;;;;;;;;;;;;;;;21.72;69.14;100179.55;1702452;83;27401;-65
2021/08/04 10:31:32;;;;;;;;;;;;;;;21.67;68.57;100184.05;1702378;84;25723;-65
2021/08/04 10:33:58;;;;;;;;;;;;;;;21.57;68.21;100180.08;1702453;84;25702;-65
2021/08/04 10:36:31;;;;;;;;;;;;;;;21.49;67.84;100189.47;1701186;82;25738;-65
2021/08/04 10:39:00;;;;;;;;;;;;;;;21.38;67.75;100194.30;1702479;84;25711;-65
2021/08/04 10:41:27;;;;;;;;;;;;;;;21.29;67.92;100202.13;1702506;84;27406;-65
2021/08/04 10:43:57;;;;;;;;;;;;;;;21.17;67.59;100203.82;1702341;84;25704;-64
2021/08/04 10:46:33;;;;;;;;;;;;;;;21.05;68.31;100213.95;1702769;83;25814;-64
2021/08/04 10:49:09;;;;;;;;;;;;;;;20.87;68.85;100213.02;1704249;83;25756;-65
2021/08/04 10:51:38;;;;;;;;;;;;;;;20.64;69.10;100220.11;1704523;84;25734;-67
2021/08/04 10:54:15;;;;;;;;;;;;;;;20.44;69.89;100228.52;1704514;83;27514;-66
2021/08/04 10:56:38;;;;;;;;;;;;;;;20.26;70.47;100221.49;1701784;84;25721;-66
2021/08/04 10:59:13;;;;;;;;;;;;;;;20.11;71.12;100226.03;1704506;83;26300;-66
2021/08/04 11:01:42;;;;;;;;;;;;;;;19.94;71.49;100227.41;1704400;84;25876;-67
2021/08/04 11:04:10;;;;;;;;;;;;;;;19.78;72.23;100227.63;1704532;84;25664;-66
2021/08/04 11:06:56;;;;;;;;;;;;;;;19.65;72.71;100219.95;1704505;84;28004;-66
2021/08/04 11:09:35;;;;;;;;;;;;;;;19.54;73.51;100219.81;1704312;84;25733;-67
2021/08/04 11:12:04;;;;;;;;;;;;;;;19.42;73.82;100223.57;1704560;83;25742;-68
2021/08/04 11:14:38;;;;;;;;;;;;;;;19.29;73.98;100225.75;1704430;83;26394;-68
2021/08/04 11:17:06;;;;;;;;;;;;;;;19.18;74.36;100226.95;1704489;83;25702;-69
2021/08/04 11:19:37;;;;;;;;;;;;;;;19.10;74.87;100225.84;1704438;83;27217;-69
2021/08/04 11:22:17;;;;;;;;;;;;;;;19.01;75.08;100224.14;1703643;84;25781;-69
2021/08/04 11:24:58;;;;;;;;;;;;;;;18.93;75.16;100223.03;1704453;83;25868;-69
2021/08/04 11:27:28;;;;;;;;;;;;;;;18.87;74.96;100227.27;1704443;84;25761;-69
2021/08/04 11:29:55;;;;;;;;;;;;;;;18.77;74.94;100228.62;1704423;83;25766;-68
2021/08/04 11:32:24;;;;;;;;;;;;;;;18.68;75.44;100230.25;1704386;84;27434;-68